createdAt,value
2022-11-11T00:00:09.595Z,12.26
2022-11-11T00:03:14.137Z,12.25
2022-11-11T00:06:19.159Z,12.24
2022-11-11T00:09:23.401Z,12.21
2022-11-11T00:12:27.904Z,12.21
2022-11-11T00:15:32.417Z,12.18
2022-11-11T00:18:56.635Z,12.17
2022-11-11T00:22:20.227Z,12.14
2022-11-11T00:25:25.072Z,12.12
2022-11-11T00:28:29.526Z,12.11
2022-11-11T00:31:35.947Z,12.08
2022-11-11T00:34:40.560Z,12.07
2022-11-11T00:37:48.897Z,12.09
2022-11-11T00:40:53.699Z,12.07
2022-11-11T00:43:58.790Z,12.06
2022-11-11T00:47:22.119Z,12.06
2022-11-11T00:50:48.093Z,12.05
2022-11-11T00:53:52.756Z,12.05
2022-11-11T00:56:57.011Z,12.02
2022-11-11T01:00:01.185Z,12.02
2022-11-11T01:03:05.799Z,11.98
2022-11-11T01:06:13.388Z,11.98
2022-11-11T01:09:17.947Z,12.00
2022-11-11T01:12:22.350Z,11.97
2022-11-11T01:15:26.501Z,11.97
2022-11-11T01:18:30.732Z,11.94
2022-11-11T01:21:35.180Z,11.94
2022-11-11T01:24:40.289Z,11.92
2022-11-11T01:27:44.834Z,11.92
2022-11-11T01:30:49.566Z,11.89
2022-11-11T01:33:53.885Z,11.88
2022-11-11T01:36:58.706Z,11.89
2022-11-11T01:40:03.631Z,11.89
2022-11-11T01:43:08.154Z,11.88
2022-11-11T01:46:43.600Z,11.88
2022-11-11T01:50:00.912Z,11.88
2022-11-11T01:53:05.523Z,11.90
2022-11-11T01:56:10.976Z,11.90
2022-11-11T01:59:17.647Z,11.90
2022-11-11T02:02:49.791Z,11.92
2022-11-11T02:05:56.515Z,11.90
2022-11-11T02:09:02.502Z,11.87
2022-11-11T02:12:29.578Z,11.86
2022-11-11T02:15:34.759Z,11.84
2022-11-11T02:18:39.283Z,11.81
2022-11-11T02:21:55.586Z,11.79
2022-11-11T02:25:02.703Z,11.78
2022-11-11T02:28:09.206Z,11.78
2022-11-11T02:31:13.792Z,11.77
2022-11-11T02:34:18.409Z,11.76
2022-11-11T02:37:26.104Z,11.75
2022-11-11T02:41:04.551Z,11.73
2022-11-11T02:44:09.324Z,11.72
2022-11-11T02:47:14.165Z,11.72
2022-11-11T02:50:20.537Z,11.75
2022-11-11T02:53:25.415Z,11.73
2022-11-11T02:56:49.120Z,11.75
2022-11-11T02:59:53.662Z,11.76
2022-11-11T03:02:58.419Z,11.76
2022-11-11T03:06:03.052Z,11.78
2022-11-11T03:09:07.564Z,11.77
2022-11-11T03:12:12.837Z,11.79
2022-11-11T03:15:17.695Z,11.80
2022-11-11T03:18:22.727Z,11.81
2022-11-11T03:22:46.583Z,11.82
2022-11-11T03:25:09.993Z,11.82
2022-11-11T03:28:18.639Z,11.83
2022-11-11T03:31:23.138Z,11.82
2022-11-11T03:34:27.313Z,11.82
2022-11-11T03:37:50.493Z,11.83
2022-11-11T03:40:57.669Z,11.82
2022-11-11T03:44:02.270Z,11.83
2022-11-11T03:47:06.746Z,11.82
2022-11-11T03:50:11.619Z,11.81
2022-11-11T03:53:18.175Z,11.80
2022-11-11T03:56:22.616Z,11.81
2022-11-11T03:59:26.654Z,11.81
2022-11-11T04:02:49.546Z,11.79
2022-11-11T04:06:12.407Z,11.79
2022-11-11T04:09:35.785Z,11.77
2022-11-11T04:13:01.157Z,11.75
2022-11-11T04:16:06.108Z,11.75
2022-11-11T04:19:28.750Z,11.75
2022-11-11T04:22:33.320Z,11.73
2022-11-11T04:25:49.821Z,11.73
2022-11-11T04:29:12.451Z,11.72
2022-11-11T04:32:35.493Z,11.67
2022-11-11T04:35:39.783Z,11.65
2022-11-11T04:39:02.869Z,11.62
2022-11-11T04:42:08.582Z,11.58
2022-11-11T04:45:31.042Z,11.57
2022-11-11T04:48:35.834Z,11.53
2022-11-11T04:51:58.544Z,11.49
2022-11-11T04:55:22.246Z,11.52
2022-11-11T04:58:34.372Z,11.48
2022-11-11T05:01:57.222Z,11.49
2022-11-11T05:05:01.846Z,11.46
2022-11-11T05:08:25.002Z,11.46
2022-11-11T05:11:37.174Z,11.44
2022-11-11T05:15:00.031Z,11.46
2022-11-11T05:18:23.800Z,11.44
2022-11-11T05:21:31.830Z,11.40
2022-11-11T05:24:54.710Z,11.40
2022-11-11T05:27:59.434Z,11.37
2022-11-11T05:31:03.827Z,11.38
2022-11-11T05:34:08.322Z,11.38
2022-11-11T05:37:13.390Z,11.36
2022-11-11T05:40:17.914Z,11.37
2022-11-11T05:43:22.563Z,11.36
2022-11-11T05:46:27.155Z,11.32
2022-11-11T05:49:31.918Z,11.31
2022-11-11T05:52:36.448Z,11.29
2022-11-11T05:55:41.399Z,11.28
2022-11-11T05:58:50.353Z,11.29
2022-11-11T06:01:56.168Z,11.28
2022-11-11T06:05:00.937Z,11.26
2022-11-11T06:08:05.823Z,11.25
2022-11-11T06:11:10.674Z,11.24
2022-11-11T06:14:15.388Z,11.25
2022-11-11T06:17:19.785Z,11.27
2022-11-11T06:20:25.112Z,11.27
2022-11-11T06:23:29.871Z,11.27
2022-11-11T06:26:33.842Z,11.28
2022-11-11T06:29:38.298Z,11.28
2022-11-11T06:32:42.281Z,11.27
2022-11-11T06:35:47.458Z,11.26
2022-11-11T06:38:51.426Z,11.27
2022-11-11T06:41:56.131Z,11.24
2022-11-11T06:45:00.756Z,11.23
2022-11-11T06:48:06.425Z,11.24
2022-11-11T06:51:13.388Z,11.25
2022-11-11T06:54:17.974Z,11.22
2022-11-11T06:57:25.670Z,11.20
2022-11-11T07:00:29.917Z,11.20
2022-11-11T07:03:34.972Z,11.19
2022-11-11T07:06:39.113Z,11.21
2022-11-11T07:09:44.213Z,11.17
2022-11-11T07:12:48.486Z,11.18
2022-11-11T07:15:52.901Z,11.17
2022-11-11T07:18:57.030Z,11.15
2022-11-11T07:22:01.183Z,11.15
2022-11-11T07:25:08.120Z,11.17
2022-11-11T07:28:19.476Z,11.15
2022-11-11T07:31:25.421Z,11.13
2022-11-11T07:34:29.873Z,11.15
2022-11-11T07:37:36.648Z,11.14
2022-11-11T07:40:41.076Z,11.15
2022-11-11T07:43:45.369Z,11.16
2022-11-11T07:46:51.042Z,11.17
2022-11-11T07:49:55.052Z,11.17
2022-11-11T07:52:59.557Z,11.18
2022-11-11T07:56:04.130Z,11.20
2022-11-11T07:59:08.597Z,11.20
2022-11-11T08:02:13.919Z,11.20
2022-11-11T08:05:18.245Z,11.19
2022-11-11T08:08:26.653Z,11.15
2022-11-11T08:11:49.740Z,11.15
2022-11-11T08:14:54.157Z,11.15
2022-11-11T08:17:58.255Z,11.17
2022-11-11T08:21:06.178Z,11.20
2022-11-11T08:27:37.458Z,11.23
2022-11-11T08:30:42.362Z,11.22
2022-11-11T08:33:47.359Z,11.25
2022-11-11T08:36:52.407Z,11.28
2022-11-11T08:39:57.527Z,11.29
2022-11-11T08:43:01.852Z,11.29
2022-11-11T08:46:06.518Z,11.30
2022-11-11T08:49:13.166Z,11.34
2022-11-11T08:52:18.015Z,11.35
2022-11-11T08:55:22.702Z,11.35
2022-11-11T08:58:27.010Z,11.36
2022-11-11T09:01:31.119Z,11.39
2022-11-11T09:04:44.883Z,11.40
2022-11-11T09:07:50.533Z,11.40
2022-11-11T09:10:54.723Z,11.41
2022-11-11T09:13:59.294Z,11.43
2022-11-11T09:17:04.002Z,11.41
2022-11-11T09:20:09.578Z,11.39
2022-11-11T09:23:14.128Z,11.36
2022-11-11T09:26:18.577Z,11.32
2022-11-11T09:29:22.675Z,11.31
2022-11-11T09:32:27.031Z,11.32
2022-11-11T09:35:33.400Z,11.31
2022-11-11T09:38:38.458Z,11.27
2022-11-11T09:42:37.812Z,11.30
2022-11-11T09:46:28.045Z,11.32
2022-11-11T09:50:05.653Z,11.32
2022-11-11T09:53:37.575Z,11.31
2022-11-11T09:56:42.458Z,11.32
2022-11-11T09:59:52.331Z,11.33
2022-11-11T10:03:19.163Z,11.38
2022-11-11T10:06:30.036Z,11.37
2022-11-11T10:10:12.518Z,11.36
2022-11-11T10:13:32.018Z,11.39
2022-11-11T10:17:03.299Z,11.42
2022-11-11T10:20:32.673Z,11.44
2022-11-11T10:23:38.686Z,11.45
2022-11-11T10:26:46.309Z,11.46
2022-11-11T10:29:51.991Z,11.47
2022-11-11T10:33:05.510Z,11.49
2022-11-11T10:36:17.936Z,11.52
2022-11-11T10:39:38.660Z,11.55
2022-11-11T10:42:44.074Z,11.57
2022-11-11T10:46:07.612Z,11.62
2022-11-11T10:49:24.584Z,11.62
2022-11-11T10:52:50.206Z,11.67
2022-11-11T10:56:32.202Z,11.70
2022-11-11T11:00:05.443Z,11.76
2022-11-11T11:03:31.287Z,11.80
2022-11-11T11:06:41.279Z,11.83
2022-11-11T11:10:01.429Z,11.82
2022-11-11T11:13:36.415Z,11.84
2022-11-11T11:16:51.186Z,11.86
2022-11-11T11:20:22.790Z,11.86
2022-11-11T11:23:45.620Z,11.92
2022-11-11T11:26:59.402Z,11.95
2022-11-11T11:30:17.340Z,11.97
2022-11-11T11:33:22.125Z,11.98
2022-11-11T11:36:26.500Z,11.98
2022-11-11T11:39:40.078Z,12.02
2022-11-11T11:42:44.829Z,12.03
2022-11-11T11:45:55.667Z,12.01
2022-11-11T11:49:25.467Z,12.07
2022-11-11T11:53:34.316Z,12.08
2022-11-11T11:56:49.934Z,12.10
2022-11-11T12:00:06.633Z,12.11
2022-11-11T12:03:33.614Z,12.12
2022-11-11T12:07:13.428Z,12.12
2022-11-11T12:10:27.177Z,12.10
2022-11-11T12:13:51.556Z,12.11
2022-11-11T12:17:05.333Z,12.09
2022-11-11T12:20:35.254Z,12.08
2022-11-11T12:24:16.921Z,12.05
2022-11-11T12:27:58.649Z,12.05
2022-11-11T12:31:15.178Z,12.04
2022-11-11T12:34:22.482Z,12.04
2022-11-11T12:37:47.074Z,12.03
2022-11-11T12:41:00.161Z,12.06
2022-11-11T12:44:13.420Z,12.02
2022-11-11T12:47:35.125Z,11.99
2022-11-11T12:50:53.445Z,12.00
2022-11-11T12:54:26.871Z,11.98
2022-11-11T12:58:09.323Z,12.00
2022-11-11T13:01:35.681Z,12.03
2022-11-11T13:05:07.848Z,12.04
2022-11-11T13:08:46.536Z,11.98
2022-11-11T13:12:10.250Z,11.95
2022-11-11T13:15:23.785Z,11.92
2022-11-11T13:18:55.305Z,11.89
2022-11-11T13:22:26.137Z,11.87
2022-11-11T13:25:34.628Z,11.89
2022-11-11T13:28:47.883Z,11.87
2022-11-11T13:31:55.366Z,11.85
2022-11-11T13:35:00.807Z,11.82
2022-11-11T13:38:05.653Z,11.77
2022-11-11T13:41:10.776Z,11.76
2022-11-11T13:44:34.880Z,11.76
2022-11-11T13:47:44.450Z,11.79
2022-11-11T13:50:48.930Z,11.78
2022-11-11T13:53:54.145Z,11.77
2022-11-11T13:57:22.572Z,11.77
2022-11-11T14:00:39.670Z,11.75
2022-11-11T14:03:44.191Z,11.73
2022-11-11T14:06:51.037Z,11.76
2022-11-11T14:10:03.107Z,11.73
2022-11-11T14:13:24.039Z,11.74
2022-11-11T14:16:35.585Z,11.72
2022-11-11T14:19:40.117Z,11.70
2022-11-11T14:22:45.075Z,11.72
2022-11-11T14:26:12.466Z,11.70
2022-11-11T14:29:20.373Z,11.66
2022-11-11T14:32:39.991Z,11.63
2022-11-11T14:36:06.244Z,11.61
2022-11-11T14:39:36.128Z,11.60
2022-11-11T14:42:44.901Z,11.59
2022-11-11T14:45:49.376Z,11.60
2022-11-11T14:48:59.555Z,11.60
2022-11-11T14:52:05.714Z,11.62
2022-11-11T14:55:35.843Z,11.63
2022-11-11T14:58:40.852Z,11.63
2022-11-11T15:01:47.275Z,11.62
2022-11-11T15:04:51.750Z,11.64
2022-11-11T15:08:13.992Z,11.62
2022-11-11T15:11:51.709Z,11.61
2022-11-11T15:15:42.631Z,11.58
2022-11-11T15:19:11.353Z,11.55
2022-11-11T15:22:38.417Z,11.50
2022-11-11T15:26:20.694Z,11.47
2022-11-11T15:29:40.057Z,11.45
2022-11-11T15:33:21.204Z,11.43
2022-11-11T15:37:06.000Z,11.41
2022-11-11T15:40:20.832Z,11.44
2022-11-11T15:43:32.788Z,11.42
2022-11-11T15:46:43.436Z,11.42
2022-11-11T15:49:48.926Z,11.40
2022-11-11T15:53:07.416Z,11.41
2022-11-11T15:56:12.539Z,11.41
2022-11-11T15:59:25.583Z,11.39
2022-11-11T16:02:35.351Z,11.38
2022-11-11T16:05:43.142Z,11.35
2022-11-11T16:08:52.032Z,11.38
2022-11-11T16:11:57.989Z,11.39
2022-11-11T16:15:07.243Z,11.36
2022-11-11T16:18:48.473Z,11.39
2022-11-11T16:22:11.976Z,11.42
2022-11-11T16:25:21.376Z,11.43
2022-11-11T16:28:31.298Z,11.44
2022-11-11T16:31:41.113Z,11.46
2022-11-11T16:34:49.817Z,11.45
2022-11-11T16:37:55.360Z,11.47
2022-11-11T16:41:00.461Z,11.46
2022-11-11T16:44:05.386Z,11.45
2022-11-11T16:47:28.580Z,11.47
2022-11-11T16:50:33.243Z,11.46
2022-11-11T16:53:53.580Z,11.45
2022-11-11T16:57:00.206Z,11.46
2022-11-11T17:00:06.581Z,11.46
2022-11-11T17:03:17.477Z,11.46
2022-11-11T17:06:52.733Z,11.49
2022-11-11T17:10:26.495Z,11.51
2022-11-11T17:13:34.051Z,11.52
2022-11-11T17:16:40.528Z,11.52
2022-11-11T17:19:44.818Z,11.52
2022-11-11T17:22:54.026Z,11.53
2022-11-11T17:26:00.675Z,11.52
2022-11-11T17:29:05.074Z,11.53
2022-11-11T17:32:09.075Z,11.56
2022-11-11T17:35:13.664Z,11.54
2022-11-11T17:38:18.572Z,11.53
2022-11-11T17:41:23.283Z,11.52
2022-11-11T17:44:27.497Z,11.53
2022-11-11T17:47:39.251Z,11.54
2022-11-11T17:50:47.350Z,11.54
2022-11-11T17:53:52.803Z,11.55
2022-11-11T17:56:57.029Z,11.55
2022-11-11T18:00:02.806Z,11.56
2022-11-11T18:03:07.881Z,11.57
2022-11-11T18:06:12.158Z,11.59
2022-11-11T18:09:16.354Z,11.62
2022-11-11T18:12:20.636Z,11.63
2022-11-11T18:15:25.110Z,11.64
2022-11-11T18:18:31.410Z,11.63
2022-11-11T18:21:36.574Z,11.66
2022-11-11T18:24:41.111Z,11.65
2022-11-11T18:27:45.622Z,11.66
2022-11-11T18:30:50.413Z,11.65
2022-11-11T18:33:54.707Z,11.66
2022-11-11T18:36:58.976Z,11.65
2022-11-11T18:40:03.495Z,11.65
2022-11-11T18:43:07.901Z,11.64
2022-11-11T18:46:15.739Z,11.62
2022-11-11T18:49:20.325Z,11.61
2022-11-11T18:52:24.488Z,11.58
2022-11-11T18:55:29.250Z,11.57
2022-11-11T18:58:35.588Z,11.52
2022-11-11T19:01:41.972Z,11.53
2022-11-11T19:04:46.601Z,11.53
2022-11-11T19:07:51.258Z,11.52
2022-11-11T19:10:55.886Z,11.51
2022-11-11T19:14:00.630Z,11.50
2022-11-11T19:17:05.101Z,11.48
2022-11-11T19:20:13.062Z,11.49
2022-11-11T19:23:18.102Z,11.47
2022-11-11T19:26:26.972Z,11.46
2022-11-11T19:29:31.343Z,11.46
2022-11-11T19:32:35.959Z,11.44
2022-11-11T19:35:40.413Z,11.43
2022-11-11T19:38:47.890Z,11.42
2022-11-11T19:41:52.827Z,11.39
2022-11-11T19:44:57.726Z,11.38
2022-11-11T19:48:02.535Z,11.35
2022-11-11T19:51:21.223Z,11.31
2022-11-11T19:54:25.785Z,11.29
2022-11-11T19:57:30.002Z,11.28
2022-11-11T20:00:34.399Z,11.26
2022-11-11T20:03:39.775Z,11.27
2022-11-11T20:06:45.692Z,11.26
2022-11-11T20:09:50.376Z,11.27
2022-11-11T20:12:54.713Z,11.28
2022-11-11T20:16:02.546Z,11.27
2022-11-11T20:19:09.744Z,11.24
2022-11-11T20:22:15.120Z,11.20
2022-11-11T20:25:21.328Z,11.22
2022-11-11T20:28:25.745Z,11.21
2022-11-11T20:31:30.236Z,11.23
2022-11-11T20:34:34.725Z,11.25
2022-11-11T20:37:39.261Z,11.25
2022-11-11T20:40:43.654Z,11.24
2022-11-11T20:43:48.814Z,11.26
2022-11-11T20:46:55.291Z,11.25
2022-11-11T20:50:00.001Z,11.24
2022-11-11T20:53:04.412Z,11.27
2022-11-11T20:56:22.264Z,11.31
2022-11-11T20:59:28.502Z,11.33
2022-11-11T21:02:32.522Z,11.31
2022-11-11T21:05:37.087Z,11.33
2022-11-11T21:08:44.659Z,11.34
2022-11-11T21:11:49.479Z,11.36
2022-11-11T21:14:53.868Z,11.40
2022-11-11T21:17:58.210Z,11.40
2022-11-11T21:21:30.747Z,11.42
2022-11-11T21:24:35.097Z,11.43
2022-11-11T21:27:39.622Z,11.43
2022-11-11T21:30:43.962Z,11.43
2022-11-11T21:33:55.492Z,11.44
2022-11-11T21:37:00.178Z,11.42
2022-11-11T21:40:05.177Z,11.46
2022-11-11T21:43:11.547Z,11.47
2022-11-11T21:46:19.565Z,11.48
2022-11-11T21:49:24.167Z,11.45
2022-11-11T21:52:28.651Z,11.47
2022-11-11T21:55:34.661Z,11.46
2022-11-11T21:58:41.388Z,11.45
2022-11-11T22:01:46.605Z,11.44
2022-11-11T22:04:51.277Z,11.45
2022-11-11T22:07:55.366Z,11.44
2022-11-11T22:11:24.808Z,11.42
2022-11-11T22:14:29.542Z,11.41
2022-11-11T22:17:33.915Z,11.39
2022-11-11T22:20:39.067Z,11.38
2022-11-11T22:23:52.565Z,11.39
2022-11-11T22:26:56.741Z,11.37
2022-11-11T22:30:02.200Z,11.34
2022-11-11T22:33:06.786Z,11.35
2022-11-11T22:36:18.252Z,11.32
2022-11-11T22:39:22.960Z,11.33
2022-11-11T22:42:27.568Z,11.31
2022-11-11T22:45:31.499Z,11.30
2022-11-11T22:48:37.553Z,11.33
2022-11-11T22:51:46.155Z,11.32
2022-11-11T22:54:50.405Z,11.31
2022-11-11T22:57:54.491Z,11.29
2022-11-11T23:01:07.825Z,11.31
2022-11-11T23:04:12.619Z,11.32
2022-11-11T23:07:16.716Z,11.29
2022-11-11T23:10:21.427Z,11.30
2022-11-11T23:13:27.957Z,11.30
2022-11-11T23:16:33.719Z,11.32
2022-11-11T23:19:38.976Z,11.29
2022-11-11T23:22:43.384Z,11.25
2022-11-11T23:25:47.835Z,11.23
2022-11-11T23:28:52.461Z,11.26
2022-11-11T23:31:56.981Z,11.25
2022-11-11T23:35:01.333Z,11.23
2022-11-11T23:38:05.751Z,11.20
2022-11-11T23:41:10.470Z,11.18
2022-11-11T23:44:15.034Z,11.15
2022-11-11T23:47:19.862Z,11.11
2022-11-11T23:50:24.332Z,11.08
2022-11-11T23:53:29.854Z,11.08
2022-11-11T23:56:34.594Z,11.05
2022-11-11T23:59:38.970Z,11.02
